createdAt,value
2023-11-30T00:00:12.423Z,100008.89
2023-11-30T00:01:05.538Z,100008.55
2023-11-30T00:01:44.478Z,100010.48
2023-11-30T00:02:25.674Z,100008.20
2023-11-30T00:02:59.621Z,100009.77
2023-11-30T00:03:38.856Z,100003.79
2023-11-30T00:04:15.872Z,100008.52
2023-11-30T00:04:55.386Z,100006.77
2023-11-30T00:05:36.564Z,100008.88
2023-11-30T00:06:11.737Z,100008.69
2023-11-30T00:06:47.865Z,100006.41
2023-11-30T00:07:31.469Z,100011.32
2023-11-30T00:08:14.724Z,100012.90
2023-11-30T00:09:05.943Z,100010.63
2023-11-30T00:09:45.184Z,100004.27
2023-11-30T00:10:27.429Z,100004.10
2023-11-30T00:11:09.448Z,100002.01
2023-11-30T00:11:54.558Z,100003.77
2023-11-30T00:12:35.732Z,100001.48
2023-11-30T00:13:12.217Z,99999.37
2023-11-30T00:13:50.246Z,99995.01
2023-11-30T00:14:28.754Z,99995.01
2023-11-30T00:15:16.702Z,99988.00
2023-11-30T00:15:59.208Z,99988.56
2023-11-30T00:17:29.400Z,99983.11
2023-11-30T00:18:06.029Z,99981.52
2023-11-30T00:18:44.071Z,99984.34
2023-11-30T00:19:24.829Z,99984.86
2023-11-30T00:20:10.243Z,99987.66
2023-11-30T00:20:48.590Z,99989.07
2023-11-30T00:21:22.276Z,99990.83
2023-11-30T00:22:01.006Z,99991.50
2023-11-30T00:22:44.651Z,99990.43
2023-11-30T00:23:36.555Z,99991.66
2023-11-30T00:24:19.620Z,99987.77
2023-11-30T00:24:56.441Z,99985.52
2023-11-30T00:25:31.980Z,99982.35
2023-11-30T00:26:19.849Z,99979.20
2023-11-30T00:27:25.213Z,99974.83
2023-11-30T00:27:58.253Z,99972.20
2023-11-30T00:28:36.998Z,99969.77
2023-11-30T00:29:10.966Z,99967.86
2023-11-30T00:29:54.841Z,99962.76
2023-11-30T00:30:31.422Z,99963.66
2023-11-30T00:31:07.878Z,99962.08
2023-11-30T00:31:44.755Z,99959.45
2023-11-30T00:32:22.875Z,99957.00
2023-11-30T00:33:18.412Z,99957.70
2023-11-30T00:33:56.952Z,99960.70
2023-11-30T00:34:44.174Z,99959.29
2023-11-30T00:35:29.178Z,99964.54
2023-11-30T00:36:12.519Z,99965.58
2023-11-30T00:36:57.549Z,99965.56
2023-11-30T00:37:42.461Z,99968.36
2023-11-30T00:38:18.579Z,99968.52
2023-11-30T00:38:57.942Z,99964.31
2023-11-30T00:39:54.211Z,99966.40
2023-11-30T00:40:30.681Z,99967.45
2023-11-30T00:41:07.826Z,99967.11
2023-11-30T00:41:43.725Z,99963.77
2023-11-30T00:42:19.790Z,99963.09
2023-11-30T00:43:11.348Z,99965.75
2023-11-30T00:43:45.356Z,99961.52
2023-11-30T00:44:26.770Z,99960.84
2023-11-30T00:45:10.805Z,99960.49
2023-11-30T00:46:03.076Z,99958.22
2023-11-30T00:47:07.279Z,99954.36
2023-11-30T00:47:48.606Z,99958.37
2023-11-30T00:48:33.785Z,99956.24
2023-11-30T00:49:14.584Z,99959.56
2023-11-30T00:49:53.088Z,99954.10
2023-11-30T00:50:34.929Z,99956.20
2023-11-30T00:51:14.200Z,99955.31
2023-11-30T00:52:06.008Z,99952.49
2023-11-30T00:52:39.726Z,99952.46
2023-11-30T00:53:15.894Z,99952.30
2023-11-30T00:53:56.522Z,99948.95
2023-11-30T00:54:37.507Z,99947.36
2023-11-30T00:55:16.787Z,99949.81
2023-11-30T00:55:55.014Z,99949.83
2023-11-30T00:56:38.861Z,99951.23
2023-11-30T00:57:21.222Z,99949.13
2023-11-30T00:58:02.965Z,99945.62
2023-11-30T00:58:39.214Z,99948.09
2023-11-30T00:59:12.930Z,99945.28
2023-11-30T00:59:49.112Z,99948.65
2023-11-30T01:00:28.176Z,99946.73
2023-11-30T01:01:04.215Z,99944.64
2023-11-30T01:01:42.378Z,99943.75
2023-11-30T01:02:15.939Z,99946.23
2023-11-30T01:02:55.347Z,99947.12
2023-11-30T01:03:29.159Z,99947.46
2023-11-30T01:04:09.901Z,99943.42
2023-11-30T01:04:50.259Z,99945.00
2023-11-30T01:05:26.722Z,99946.40
2023-11-30T01:06:05.583Z,99945.86
2023-11-30T01:06:52.031Z,99946.20
2023-11-30T01:07:30.463Z,99946.02
2023-11-30T01:08:07.069Z,99944.42
2023-11-30T01:09:01.908Z,99941.80
2023-11-30T01:09:45.465Z,99942.67
2023-11-30T01:10:19.461Z,99942.85
2023-11-30T01:10:59.323Z,99940.41
2023-11-30T01:11:34.442Z,99941.48
2023-11-30T01:12:19.404Z,99939.05
2023-11-30T01:12:57.395Z,99931.86
2023-11-30T01:13:50.045Z,99933.81
2023-11-30T01:14:23.952Z,99930.67
2023-11-30T01:15:12.353Z,99930.86
2023-11-30T01:15:47.265Z,99927.70
2023-11-30T01:16:26.903Z,99930.86
2023-11-30T01:17:00.309Z,99931.55
2023-11-30T01:17:36.264Z,99928.92
2023-11-30T01:18:10.704Z,99931.39
2023-11-30T01:18:45.107Z,99932.94
2023-11-30T01:19:26.695Z,99928.20
2023-11-30T01:20:03.169Z,99935.92
2023-11-30T01:20:40.054Z,99933.97
2023-11-30T01:21:18.891Z,99932.94
2023-11-30T01:21:56.378Z,99932.94
2023-11-30T01:22:33.215Z,99929.23
2023-11-30T01:23:12.323Z,99926.39
2023-11-30T01:23:53.559Z,99927.96
2023-11-30T01:24:32.954Z,99929.53
2023-11-30T01:25:13.316Z,99926.19
2023-11-30T01:25:54.185Z,99927.60
2023-11-30T01:26:35.008Z,99925.33
2023-11-30T01:27:09.438Z,99924.80
2023-11-30T01:28:36.815Z,99924.14
2023-11-30T01:29:10.686Z,99922.76
2023-11-30T01:29:48.177Z,99919.42
2023-11-30T01:30:35.082Z,99922.96
2023-11-30T01:31:16.825Z,99920.52
2023-11-30T01:31:51.702Z,99917.53
2023-11-30T01:32:27.162Z,99919.65
2023-11-30T01:33:05.218Z,99921.42
2023-11-30T01:33:43.303Z,99916.69
2023-11-30T01:34:22.217Z,99918.98
2023-11-30T01:35:09.497Z,99918.63
2023-11-30T01:35:47.038Z,99909.66
2023-11-30T01:36:25.910Z,99916.70
2023-11-30T01:37:13.778Z,99913.88
2023-11-30T01:37:48.731Z,99909.48
2023-11-30T01:38:29.365Z,99908.77
2023-11-30T01:39:08.192Z,99906.47
2023-11-30T01:39:48.294Z,99908.04
2023-11-30T01:40:33.796Z,99903.84
2023-11-30T01:41:36.556Z,99903.13
2023-11-30T01:42:15.399Z,99900.85
2023-11-30T01:42:55.789Z,99898.41
2023-11-30T01:43:33.769Z,99897.02
2023-11-30T01:44:11.924Z,99899.66
2023-11-30T01:44:49.015Z,99902.66
2023-11-30T01:45:25.042Z,99900.91
2023-11-30T01:46:12.543Z,99902.13
2023-11-30T01:46:49.899Z,99905.65
2023-11-30T01:47:27.361Z,99902.13
2023-11-30T01:48:08.063Z,99899.30
2023-11-30T01:48:50.554Z,99904.55
2023-11-30T01:49:34.851Z,99902.09
2023-11-30T01:50:12.181Z,99898.56
2023-11-30T01:50:53.611Z,99897.69
2023-11-30T01:51:39.547Z,99897.66
2023-11-30T01:52:20.256Z,99899.44
2023-11-30T01:53:15.510Z,99897.33
2023-11-30T01:53:59.016Z,99898.88
2023-11-30T01:54:36.555Z,99893.95
2023-11-30T01:55:13.086Z,99893.95
2023-11-30T01:55:56.555Z,99894.10
2023-11-30T01:56:38.832Z,99891.45
2023-11-30T01:57:49.715Z,99891.62
2023-11-30T01:58:28.188Z,99885.27
2023-11-30T01:59:15.765Z,99882.60
2023-11-30T02:00:01.915Z,99887.58
2023-11-30T02:00:46.098Z,99888.98
2023-11-30T02:01:23.405Z,99887.92
2023-11-30T02:01:58.862Z,99887.40
2023-11-30T02:02:34.847Z,99888.11
2023-11-30T02:03:08.242Z,99893.90
2023-11-30T02:03:41.488Z,99897.27
2023-11-30T02:04:17.274Z,99894.81
2023-11-30T02:04:56.315Z,99896.58
2023-11-30T02:05:29.529Z,99898.70
2023-11-30T02:06:02.704Z,99895.54
2023-11-30T02:06:36.072Z,99899.25
2023-11-30T02:07:10.824Z,99895.91
2023-11-30T02:07:44.088Z,99900.13
2023-11-30T02:08:17.367Z,99897.33
2023-11-30T02:08:51.569Z,99898.75
2023-11-30T02:09:27.838Z,99899.44
2023-11-30T02:10:10.254Z,99897.69
2023-11-30T02:10:43.923Z,99901.02
2023-11-30T02:11:28.426Z,99901.89
2023-11-30T02:12:05.625Z,99902.04
2023-11-30T02:12:50.886Z,99898.86
2023-11-30T02:14:38.464Z,99893.36
2023-11-30T02:15:16.564Z,99893.91
2023-11-30T02:15:53.922Z,99891.62
2023-11-30T02:16:34.767Z,99889.86
2023-11-30T02:17:11.096Z,99889.50
2023-11-30T02:17:50.974Z,99889.67
2023-11-30T02:18:27.515Z,99889.86
2023-11-30T02:19:04.591Z,99890.57
2023-11-30T02:19:40.187Z,99892.86
2023-11-30T02:20:14.666Z,99888.30
2023-11-30T02:20:51.207Z,99889.01
2023-11-30T02:21:27.065Z,99890.41
2023-11-30T02:22:02.330Z,99885.66
2023-11-30T02:22:39.372Z,99885.48
2023-11-30T02:23:15.100Z,99884.61
2023-11-30T02:24:04.209Z,99878.80
2023-11-30T02:24:38.185Z,99880.55
2023-11-30T02:25:15.086Z,99881.23
2023-11-30T02:25:56.871Z,99882.46
2023-11-30T02:26:33.779Z,99882.96
2023-11-30T02:27:28.108Z,99882.08
2023-11-30T02:28:04.205Z,99881.69
2023-11-30T02:28:49.200Z,99877.11
2023-11-30T02:29:26.259Z,99878.50
2023-11-30T02:30:02.446Z,99881.48
2023-11-30T02:30:37.706Z,99881.84
2023-11-30T02:31:12.883Z,99881.98
2023-11-30T02:31:51.998Z,99878.48
2023-11-30T02:32:39.637Z,99879.19
2023-11-30T02:33:14.105Z,99880.08
2023-11-30T02:33:51.984Z,99881.50
2023-11-30T02:34:25.989Z,99879.40
2023-11-30T02:35:03.712Z,99876.58
2023-11-30T02:35:37.582Z,99879.07
2023-11-30T02:36:20.426Z,99879.42
2023-11-30T02:37:03.346Z,99879.78
2023-11-30T02:37:41.284Z,99878.35
2023-11-30T02:38:20.478Z,99879.92
2023-11-30T02:38:59.191Z,99879.38
2023-11-30T02:39:43.288Z,99880.61
2023-11-30T02:40:21.780Z,99881.82
2023-11-30T02:41:02.063Z,99882.50
2023-11-30T02:41:35.361Z,99882.51
2023-11-30T02:42:18.453Z,99878.09
2023-11-30T02:42:53.253Z,99878.79
2023-11-30T02:43:35.171Z,99874.23
2023-11-30T02:44:15.584Z,99877.20
2023-11-30T02:44:56.441Z,99874.21
2023-11-30T02:45:31.980Z,99872.77
2023-11-30T02:46:09.900Z,99872.64
2023-11-30T02:46:45.539Z,99873.02
2023-11-30T02:47:23.359Z,99874.23
2023-11-30T02:48:00.974Z,99868.98
2023-11-30T02:48:43.886Z,99871.45
2023-11-30T02:49:22.163Z,99869.90
2023-11-30T02:49:57.916Z,99869.39
2023-11-30T02:50:32.219Z,99869.92
2023-11-30T02:51:05.805Z,99869.60
2023-11-30T02:51:41.413Z,99871.00
2023-11-30T02:52:14.838Z,99869.61
2023-11-30T02:52:53.962Z,99865.77
2023-11-30T02:53:39.421Z,99862.77
2023-11-30T02:54:12.836Z,99862.06
2023-11-30T02:54:46.213Z,99859.77
2023-11-30T02:55:27.566Z,99858.01
2023-11-30T02:57:04.042Z,99855.32
2023-11-30T02:57:41.686Z,99856.02
2023-11-30T02:58:18.775Z,99852.85
2023-11-30T02:58:53.966Z,99855.30
2023-11-30T02:59:33.021Z,99847.04
2023-11-30T03:00:07.183Z,99847.73
2023-11-30T03:00:51.150Z,99849.48
2023-11-30T03:01:34.050Z,99847.92
2023-11-30T03:02:10.104Z,99846.15
2023-11-30T03:03:12.774Z,99844.23
2023-11-30T03:03:50.111Z,99842.98
2023-11-30T03:04:23.723Z,99842.46
2023-11-30T03:04:59.777Z,99842.30
2023-11-30T03:05:36.174Z,99838.96
2023-11-30T03:06:13.330Z,99837.73
2023-11-30T03:06:51.955Z,99837.02
2023-11-30T03:07:33.491Z,99836.84
2023-11-30T03:08:12.885Z,99840.88
2023-11-30T03:08:47.985Z,99837.54
2023-11-30T03:09:22.809Z,99841.23
2023-11-30T03:09:58.781Z,99840.17
2023-11-30T03:10:42.028Z,99840.48
2023-11-30T03:11:18.433Z,99841.86
2023-11-30T03:11:54.372Z,99845.56
2023-11-30T03:12:42.114Z,99847.31
2023-11-30T03:13:15.507Z,99841.84
2023-11-30T03:13:56.356Z,99849.73
2023-11-30T03:14:32.069Z,99847.98
2023-11-30T03:15:08.894Z,99847.60
2023-11-30T03:15:54.286Z,99845.48
2023-11-30T03:16:29.436Z,99847.60
2023-11-30T03:17:04.453Z,99846.71
2023-11-30T03:17:42.185Z,99850.08
2023-11-30T03:18:18.880Z,99846.75
2023-11-30T03:19:14.429Z,99846.23
2023-11-30T03:20:01.994Z,99843.45
2023-11-30T03:20:41.106Z,99844.52
2023-11-30T03:21:22.600Z,99845.42
2023-11-30T03:22:16.515Z,99843.34
2023-11-30T03:22:52.445Z,99842.80
2023-11-30T03:23:27.312Z,99843.88
2023-11-30T03:24:00.728Z,99845.10
2023-11-30T03:24:41.103Z,99846.34
2023-11-30T03:25:14.340Z,99846.50
2023-11-30T03:25:47.973Z,99845.10
2023-11-30T03:26:24.542Z,99849.85
2023-11-30T03:27:01.058Z,99845.79
2023-11-30T03:27:48.095Z,99847.55
2023-11-30T03:28:21.721Z,99845.77
2023-11-30T03:28:56.261Z,99841.73
2023-11-30T03:29:32.356Z,99845.58
2023-11-30T03:30:09.344Z,99843.82
2023-11-30T03:30:45.056Z,99845.40
2023-11-30T03:31:28.650Z,99847.48
2023-11-30T03:32:06.849Z,99849.58
2023-11-30T03:32:41.989Z,99844.84
2023-11-30T03:33:22.910Z,99847.28
2023-11-30T03:34:00.511Z,99847.28
2023-11-30T03:34:37.298Z,99842.89
2023-11-30T03:35:15.223Z,99840.95
2023-11-30T03:35:54.281Z,99840.08
2023-11-30T03:36:40.229Z,99842.91
2023-11-30T03:37:19.110Z,99840.29
2023-11-30T03:37:57.192Z,99841.89
2023-11-30T03:38:36.441Z,99837.15
2023-11-30T03:39:10.373Z,99836.82
2023-11-30T03:39:46.274Z,99842.08
2023-11-30T03:40:26.957Z,99836.98
2023-11-30T03:41:07.456Z,99835.40
2023-11-30T03:41:46.523Z,99837.33
2023-11-30T03:42:20.425Z,99834.68
2023-11-30T03:42:57.671Z,99830.29
2023-11-30T03:43:33.070Z,99832.20
2023-11-30T03:44:10.407Z,99830.79
2023-11-30T03:44:51.628Z,99830.07
2023-11-30T03:45:25.455Z,99831.45
2023-11-30T03:46:03.033Z,99828.82
2023-11-30T03:46:37.488Z,99833.02
2023-11-30T03:47:23.931Z,99829.68
2023-11-30T03:47:59.772Z,99827.39
2023-11-30T03:48:40.101Z,99830.73
2023-11-30T03:49:13.512Z,99828.61
2023-11-30T03:49:47.969Z,99827.76
2023-11-30T03:50:30.023Z,99825.30
2023-11-30T03:51:03.738Z,99822.50
2023-11-30T03:52:05.222Z,99824.27
2023-11-30T03:52:46.057Z,99822.69
2023-11-30T03:53:26.480Z,99815.14
2023-11-30T03:54:04.896Z,99813.72
2023-11-30T03:54:43.781Z,99815.30
2023-11-30T03:55:23.584Z,99812.48
2023-11-30T03:56:06.230Z,99813.35
2023-11-30T03:56:42.223Z,99814.92
2023-11-30T03:57:20.800Z,99813.15
2023-11-30T03:57:54.491Z,99813.14
2023-11-30T03:58:28.864Z,99816.30
2023-11-30T03:59:07.624Z,99812.06
2023-11-30T03:59:48.238Z,99815.21
2023-11-30T04:00:24.113Z,99816.42
2023-11-30T04:01:03.121Z,99820.11
2023-11-30T04:01:39.783Z,99821.33
2023-11-30T04:02:18.781Z,99823.77
2023-11-30T04:03:06.076Z,99822.19
2023-11-30T04:03:43.418Z,99826.59
2023-11-30T04:04:24.561Z,99827.12
2023-11-30T04:05:01.014Z,99827.29
2023-11-30T04:05:43.796Z,99822.22
2023-11-30T04:06:21.242Z,99823.27
2023-11-30T04:07:01.953Z,99820.29
2023-11-30T04:07:38.967Z,99817.66
2023-11-30T04:08:13.121Z,99818.71
2023-11-30T04:08:58.104Z,99817.13
2023-11-30T04:09:39.240Z,99816.95
2023-11-30T04:10:27.850Z,99820.45
2023-11-30T04:11:06.357Z,99820.09
2023-11-30T04:11:42.770Z,99819.55
2023-11-30T04:12:24.443Z,99816.02
2023-11-30T04:13:05.303Z,99816.55
2023-11-30T04:13:54.353Z,99816.53
2023-11-30T04:14:33.804Z,99816.52
2023-11-30T04:15:07.724Z,99812.46
2023-11-30T04:15:41.101Z,99810.89
2023-11-30T04:16:18.389Z,99810.70
2023-11-30T04:16:54.857Z,99807.91
2023-11-30T04:17:33.045Z,99808.96
2023-11-30T04:18:10.699Z,99807.05
2023-11-30T04:18:49.051Z,99807.23
2023-11-30T04:19:25.477Z,99805.48
2023-11-30T04:20:01.591Z,99809.38
2023-11-30T04:20:38.446Z,99808.87
2023-11-30T04:21:15.195Z,99810.27
2023-11-30T04:21:48.744Z,99812.92
2023-11-30T04:22:31.474Z,99812.75
2023-11-30T04:23:06.919Z,99812.59
2023-11-30T04:23:41.206Z,99813.11
2023-11-30T04:24:20.290Z,99814.70
2023-11-30T04:24:53.553Z,99817.16
2023-11-30T04:25:28.817Z,99817.67
2023-11-30T04:26:07.164Z,99816.98
2023-11-30T04:26:47.232Z,99816.97
2023-11-30T04:27:26.468Z,99814.68
2023-11-30T04:27:59.831Z,99813.45
2023-11-30T04:28:38.370Z,99817.48
2023-11-30T04:29:14.208Z,99815.90
2023-11-30T04:29:51.893Z,99817.65
2023-11-30T04:30:25.650Z,99813.61
2023-11-30T04:30:59.502Z,99812.70
2023-11-30T04:31:35.709Z,99814.45
2023-11-30T04:32:11.540Z,99811.83
2023-11-30T04:32:49.294Z,99810.25
2023-11-30T04:33:23.099Z,99807.44
2023-11-30T04:33:56.610Z,99804.08
2023-11-30T04:34:31.299Z,99805.88
2023-11-30T04:35:08.427Z,99807.13
2023-11-30T04:35:42.111Z,99804.31
2023-11-30T04:36:19.571Z,99808.20
2023-11-30T04:37:14.169Z,99803.30
2023-11-30T04:37:53.771Z,99807.38
2023-11-30T04:38:31.586Z,99809.67
2023-11-30T04:39:09.153Z,99809.49
2023-11-30T04:39:49.881Z,99810.02
2023-11-30T04:40:26.040Z,99808.44
2023-11-30T04:41:08.152Z,99809.13
2023-11-30T04:41:42.771Z,99810.88
2023-11-30T04:42:19.468Z,99810.17
2023-11-30T04:42:54.285Z,99809.28
2023-11-30T04:43:31.283Z,99806.63
2023-11-30T04:44:12.073Z,99808.02
2023-11-30T04:44:55.251Z,99806.95
2023-11-30T04:45:34.459Z,99805.19
2023-11-30T04:46:18.795Z,99802.55
2023-11-30T04:46:58.314Z,99803.60
2023-11-30T04:47:34.291Z,99802.36
2023-11-30T04:48:14.896Z,99801.83
2023-11-30T04:48:49.575Z,99806.04
2023-11-30T04:49:25.238Z,99801.82
2023-11-30T04:50:03.229Z,99798.98
2023-11-30T04:50:40.476Z,99798.45
2023-11-30T04:51:18.430Z,99797.61
2023-11-30T04:51:57.395Z,99797.45
2023-11-30T04:52:35.169Z,99797.80
2023-11-30T04:53:10.555Z,99799.91
2023-11-30T04:53:48.203Z,99801.32
2023-11-30T04:54:24.252Z,99803.09
2023-11-30T04:55:00.857Z,99803.27
2023-11-30T04:55:39.134Z,99805.73
2023-11-30T04:56:20.618Z,99805.89
2023-11-30T04:57:01.893Z,99806.60
2023-11-30T04:57:39.158Z,99809.42
2023-11-30T04:58:16.869Z,99806.23
2023-11-30T04:58:55.900Z,99810.96
2023-11-30T04:59:39.262Z,99806.92
2023-11-30T05:00:22.395Z,99806.02
2023-11-30T05:00:57.493Z,99803.02
2023-11-30T05:01:37.211Z,99806.17
2023-11-30T05:02:11.081Z,99808.28
2023-11-30T05:03:14.041Z,99805.29
2023-11-30T05:03:50.534Z,99809.66
2023-11-30T05:04:29.019Z,99807.54
2023-11-30T05:05:05.251Z,99810.89
2023-11-30T05:05:40.627Z,99812.64
2023-11-30T05:06:18.666Z,99809.67
2023-11-30T05:06:57.539Z,99810.20
2023-11-30T05:07:32.092Z,99806.16
2023-11-30T05:08:05.950Z,99807.94
2023-11-30T05:09:07.095Z,99808.98
2023-11-30T05:09:41.053Z,99809.90
2023-11-30T05:10:17.907Z,99809.02
2023-11-30T05:10:59.139Z,99805.15
2023-11-30T05:11:55.977Z,99806.39
2023-11-30T05:12:30.655Z,99806.91
2023-11-30T05:13:06.161Z,99806.40
2023-11-30T05:13:41.312Z,99807.61
2023-11-30T05:14:20.028Z,99806.71
2023-11-30T05:14:56.373Z,99808.30
2023-11-30T05:15:32.426Z,99806.71
2023-11-30T05:16:07.791Z,99810.58
2023-11-30T05:16:44.475Z,99808.28
2023-11-30T05:17:21.093Z,99811.61
2023-11-30T05:17:59.624Z,99813.72
2023-11-30T05:18:46.566Z,99810.71
2023-11-30T05:19:20.061Z,99811.23
2023-11-30T05:20:06.332Z,99813.33
2023-11-30T05:20:39.866Z,99812.27
2023-11-30T05:21:16.878Z,99810.85
2023-11-30T05:21:50.724Z,99810.50
2023-11-30T05:22:24.409Z,99807.68
2023-11-30T05:23:02.161Z,99808.22
2023-11-30T05:23:41.318Z,99802.08
2023-11-30T05:24:14.733Z,99805.23
2023-11-30T05:24:48.157Z,99804.55
2023-11-30T05:25:22.485Z,99804.02
2023-11-30T05:25:56.224Z,99805.44
2023-11-30T05:26:48.545Z,99802.64
2023-11-30T05:27:29.968Z,99801.41
2023-11-30T05:28:07.333Z,99802.12
2023-11-30T05:28:42.508Z,99804.05
2023-11-30T05:29:23.322Z,99803.52
2023-11-30T05:30:06.361Z,99804.57
2023-11-30T05:30:43.088Z,99802.45
2023-11-30T05:31:19.198Z,99800.88
2023-11-30T05:31:55.702Z,99800.68
2023-11-30T05:32:42.386Z,99800.16
2023-11-30T05:33:26.213Z,99796.98
2023-11-30T05:34:01.218Z,99799.05
2023-11-30T05:34:38.209Z,99794.80
2023-11-30T05:35:18.367Z,99793.71
2023-11-30T05:36:03.188Z,99790.88
2023-11-30T05:36:37.140Z,99790.52
2023-11-30T05:37:17.902Z,99792.07
2023-11-30T05:38:12.379Z,99793.10
2023-11-30T05:38:54.238Z,99792.40
2023-11-30T05:39:33.470Z,99791.17
2023-11-30T05:40:22.151Z,99788.36
2023-11-30T05:41:05.368Z,99785.90
2023-11-30T05:41:49.045Z,99784.52
2023-11-30T05:42:25.834Z,99785.77
2023-11-30T05:43:06.576Z,99785.26
2023-11-30T05:43:45.334Z,99782.28
2023-11-30T05:44:24.101Z,99780.73
2023-11-30T05:45:00.328Z,99778.41
2023-11-30T05:45:39.051Z,99780.72
2023-11-30T05:46:12.509Z,99778.79
2023-11-30T05:46:50.968Z,99777.92
2023-11-30T05:47:30.521Z,99776.86
2023-11-30T05:48:11.728Z,99775.81
2023-11-30T05:48:50.873Z,99778.44
2023-11-30T05:49:32.225Z,99781.42
2023-11-30T05:50:08.730Z,99779.48
2023-11-30T05:50:49.156Z,99780.70
2023-11-30T05:51:27.893Z,99781.73
2023-11-30T05:52:08.772Z,99784.72
2023-11-30T05:52:49.700Z,99781.38
2023-11-30T05:53:23.213Z,99785.92
2023-11-30T05:54:01.919Z,99785.03
2023-11-30T05:54:36.430Z,99782.39
2023-11-30T05:55:19.144Z,99783.61
2023-11-30T05:55:57.818Z,99783.96
2023-11-30T05:56:37.244Z,99786.06
2023-11-30T05:57:18.485Z,99784.86
2023-11-30T05:57:59.274Z,99785.23
2023-11-30T05:58:42.842Z,99783.48
2023-11-30T05:59:16.952Z,99784.20
2023-11-30T05:59:50.934Z,99787.39
2023-11-30T06:00:32.378Z,99787.56
2023-11-30T06:01:09.287Z,99788.14
2023-11-30T06:01:59.650Z,99785.70
2023-11-30T06:02:36.979Z,99791.34
2023-11-30T06:03:15.073Z,99787.65
2023-11-30T06:03:52.319Z,99786.77
2023-11-30T06:04:31.231Z,99786.42
2023-11-30T06:05:08.727Z,99790.11
2023-11-30T06:05:56.003Z,99791.16
2023-11-30T06:06:34.326Z,99786.59
2023-11-30T06:07:11.618Z,99783.05
2023-11-30T06:08:00.485Z,99787.08
2023-11-30T06:08:34.730Z,99787.56
2023-11-30T06:09:08.652Z,99788.97
2023-11-30T06:09:50.639Z,99786.51
2023-11-30T06:10:36.252Z,99786.67
2023-11-30T06:11:10.111Z,99786.67
2023-11-30T06:11:53.711Z,99785.63
2023-11-30T06:12:35.374Z,99789.13
2023-11-30T06:13:10.428Z,99788.09
2023-11-30T06:13:50.329Z,99788.96
2023-11-30T06:14:31.732Z,99788.80
2023-11-30T06:15:19.621Z,99786.36
2023-11-30T06:15:56.566Z,99789.59
2023-11-30T06:16:34.930Z,99791.36
2023-11-30T06:17:21.754Z,99791.71
2023-11-30T06:18:07.102Z,99790.50
2023-11-30T06:18:43.642Z,99789.80
2023-11-30T06:19:17.790Z,99791.36
2023-11-30T06:19:58.359Z,99785.41
2023-11-30T06:20:40.267Z,99783.48
2023-11-30T06:21:16.308Z,99783.81
2023-11-30T06:21:52.125Z,99786.27
2023-11-30T06:22:28.556Z,99789.44
2023-11-30T06:23:08.675Z,99786.27
2023-11-30T06:23:48.101Z,99787.34
2023-11-30T06:24:24.189Z,99787.48
2023-11-30T06:25:24.166Z,99787.09
2023-11-30T06:26:02.671Z,99792.00
2023-11-30T06:26:36.088Z,99792.14
2023-11-30T06:27:21.340Z,99787.58
2023-11-30T06:27:58.386Z,99786.50
2023-11-30T06:28:32.226Z,99788.27
2023-11-30T06:29:07.775Z,99784.02
2023-11-30T06:29:43.141Z,99783.85
2023-11-30T06:30:16.702Z,99788.08
2023-11-30T06:30:52.502Z,99789.48
2023-11-30T06:31:29.389Z,99785.96
2023-11-30T06:32:04.008Z,99786.33
2023-11-30T06:32:47.352Z,99785.98
2023-11-30T06:33:31.405Z,99783.02
2023-11-30T06:34:12.215Z,99784.83
2023-11-30T06:34:48.120Z,99786.59
2023-11-30T06:35:22.262Z,99786.44
2023-11-30T06:35:56.894Z,99786.09
2023-11-30T06:36:30.512Z,99783.11
2023-11-30T06:37:06.067Z,99783.29
2023-11-30T06:37:40.801Z,99782.23
2023-11-30T06:38:17.471Z,99783.12
2023-11-30T06:38:52.833Z,99783.83
2023-11-30T06:39:28.662Z,99786.45
2023-11-30T06:40:05.175Z,99782.40
2023-11-30T06:40:50.313Z,99783.12
2023-11-30T06:41:27.187Z,99782.41
2023-11-30T06:42:00.667Z,99781.70
2023-11-30T06:42:36.518Z,99781.52
2023-11-30T06:43:12.029Z,99782.73
2023-11-30T06:43:45.482Z,99781.50
2023-11-30T06:44:19.278Z,99781.83
2023-11-30T06:44:56.617Z,99786.74
2023-11-30T06:45:39.604Z,99784.98
2023-11-30T06:46:25.305Z,99782.67
2023-11-30T06:46:59.367Z,99783.41
2023-11-30T06:47:48.218Z,99780.95
2023-11-30T06:48:27.989Z,99782.91
2023-11-30T06:49:01.493Z,99779.94
2023-11-30T06:49:34.871Z,99781.34
2023-11-30T06:50:10.783Z,99783.79
2023-11-30T06:50:49.409Z,99783.98
2023-11-30T06:51:22.713Z,99785.74
2023-11-30T06:52:00.963Z,99784.52
2023-11-30T06:52:35.471Z,99785.56
2023-11-30T06:53:09.608Z,99784.86
2023-11-30T06:53:46.458Z,99783.98
2023-11-30T06:54:23.227Z,99786.26
2023-11-30T06:54:59.086Z,99784.68
2023-11-30T06:55:44.674Z,99781.85
2023-11-30T06:56:23.611Z,99787.47
2023-11-30T06:57:02.642Z,99782.71
2023-11-30T06:57:41.742Z,99784.60
2023-11-30T06:58:20.083Z,99784.60
2023-11-30T06:59:15.842Z,99785.46
2023-11-30T06:59:54.885Z,99783.52
2023-11-30T07:00:30.692Z,99778.07
2023-11-30T07:01:34.245Z,99777.90
2023-11-30T07:02:13.954Z,99774.40
2023-11-30T07:02:48.171Z,99776.13
2023-11-30T07:03:31.065Z,99774.02
2023-11-30T07:04:07.357Z,99772.98
2023-11-30T07:04:47.212Z,99774.39
2023-11-30T07:05:23.630Z,99772.98
2023-11-30T07:06:12.140Z,99772.48
2023-11-30T07:06:50.118Z,99775.10
2023-11-30T07:07:34.018Z,99772.45
2023-11-30T07:08:12.366Z,99774.39
2023-11-30T07:08:49.936Z,99777.53
2023-11-30T07:09:23.279Z,99774.89
2023-11-30T07:10:03.171Z,99777.86
2023-11-30T07:10:36.940Z,99777.67
2023-11-30T07:11:15.448Z,99779.24
2023-11-30T07:11:49.160Z,99780.46
2023-11-30T07:12:23.180Z,99779.20
2023-11-30T07:12:56.498Z,99778.64
2023-11-30T07:13:32.625Z,99782.54
2023-11-30T07:14:08.739Z,99779.90
2023-11-30T07:14:50.752Z,99779.19
2023-11-30T07:15:25.092Z,99778.65
2023-11-30T07:15:58.473Z,99780.39
2023-11-30T07:16:32.170Z,99781.63
2023-11-30T07:17:11.545Z,99779.17
2023-11-30T07:17:44.932Z,99777.80
2023-11-30T07:18:23.911Z,99778.49
2023-11-30T07:18:59.378Z,99777.63
2023-11-30T07:19:32.926Z,99774.99
2023-11-30T07:20:08.254Z,99776.41
2023-11-30T07:20:44.551Z,99778.70
2023-11-30T07:21:19.728Z,99775.91
2023-11-30T07:21:57.446Z,99776.61
2023-11-30T07:22:32.245Z,99774.86
2023-11-30T07:23:23.441Z,99774.34
2023-11-30T07:23:59.572Z,99775.55
2023-11-30T07:24:34.338Z,99779.42
2023-11-30T07:25:10.517Z,99782.06
2023-11-30T07:25:45.336Z,99783.64
2023-11-30T07:26:18.832Z,99783.27
2023-11-30T07:26:52.350Z,99782.39
2023-11-30T07:27:29.814Z,99782.02
2023-11-30T07:28:03.023Z,99781.30
2023-11-30T07:28:45.840Z,99780.95
2023-11-30T07:29:26.955Z,99781.12
2023-11-30T07:30:04.979Z,99781.45
2023-11-30T07:30:43.892Z,99781.41
2023-11-30T07:31:23.853Z,99785.27
2023-11-30T07:32:00.201Z,99784.04
2023-11-30T07:32:36.257Z,99783.52
2023-11-30T07:33:15.616Z,99787.57
2023-11-30T07:33:53.465Z,99786.30
2023-11-30T07:34:26.764Z,99791.27
2023-11-30T07:35:03.093Z,99790.20
2023-11-30T07:35:39.130Z,99795.67
2023-11-30T07:36:15.368Z,99797.44
2023-11-30T07:36:52.024Z,99796.04
2023-11-30T07:37:32.491Z,99797.10
2023-11-30T07:38:07.845Z,99799.04
2023-11-30T07:38:43.056Z,99800.09
2023-11-30T07:39:21.372Z,99801.88
2023-11-30T07:39:54.738Z,99796.09
2023-11-30T07:40:28.009Z,99794.32
2023-11-30T07:41:04.036Z,99798.71
2023-11-30T07:41:43.263Z,99794.00